Time;durP1;ratioP1;P1;durP2;ratioP2;P2;SDS_P1;SDS_P2;PMS_P1;PMS_P2;Temp;Humidity;BMP_temperature;BMP_pressure;BME280_temperature;BME280_humidity;BME280_pressure;Samples;Min_cycle;Max_cycle;Signal;HPM_P1;HPM_P2
2021/10/07 21:01:51;;;;;;;15.20;8.28;;;;;;;9.41;45.53;101337.40;1754685;80;22051;-41
2021/10/07 21:04:18;;;;;;;16.97;8.63;;;;;;;9.58;44.86;101337.59;1735384;82;21039;-41
2021/10/07 21:06:44;;;;;;;16.32;8.35;;;;;;;9.60;45.28;101342.93;1735377;82;21774;-41
2021/10/07 21:09:11;;;;;;;16.30;8.45;;;;;;;9.67;44.91;101345.78;1735371;82;20952;-41
2021/10/07 21:11:37;;;;;;;15.70;8.03;;;;;;;9.71;44.80;101347.58;1735285;82;20951;-41
2021/10/07 21:14:04;;;;;;;14.68;8.78;;;;;;;9.75;44.58;101351.27;1735397;82;21010;-41
2021/10/07 21:16:33;;;;;;;15.50;8.45;;;;;;;9.75;44.37;101345.85;1735389;82;20983;-41
2021/10/07 21:19:00;;;;;;;17.50;8.18;;;;;;;9.74;44.21;101346.15;1735192;82;21473;-41
2021/10/07 21:21:27;;;;;;;16.30;8.05;;;;;;;9.68;44.13;101349.55;1735007;82;20999;-41
2021/10/07 21:23:53;;;;;;;14.25;8.00;;;;;;;9.64;44.12;101345.02;1735317;82;20971;-41
2021/10/07 21:26:20;;;;;;;12.25;8.13;;;;;;;9.57;44.26;101348.16;1735243;82;21512;-41
2021/10/07 21:28:46;;;;;;;17.92;8.13;;;;;;;9.51;44.11;101348.81;1735248;82;20951;-41
2021/10/07 21:31:13;;;;;;;12.28;7.72;;;;;;;9.48;44.17;101348.63;1708326;82;21909;-41
2021/10/07 21:33:40;;;;;;;15.03;8.05;;;;;;;9.45;44.11;101347.86;1735170;82;21054;-41
2021/10/07 21:36:06;;;;;;;16.50;7.28;;;;;;;9.41;44.16;101345.52;1735185;82;20963;-41
2021/10/07 21:38:33;;;;;;;12.90;7.25;;;;;;;9.34;44.17;101339.18;1735461;82;21596;-41
2021/10/07 21:41:00;;;;;;;13.58;7.25;;;;;;;9.31;44.20;101340.31;1735391;82;21307;-41
2021/10/07 21:43:28;;;;;;;12.73;7.92;;;;;;;9.27;44.21;101336.62;1735363;82;21191;-41
2021/10/07 21:45:54;;;;;;;15.53;8.08;;;;;;;9.23;44.27;101339.13;1735171;82;21035;-41
2021/10/07 21:48:21;;;;;;;13.50;7.72;;;;;;;9.19;44.30;101335.98;1735265;82;21097;-41
2021/10/07 21:50:47;;;;;;;14.75;7.20;;;;;;;9.18;44.39;101343.84;1750660;80;20976;-42
2021/10/07 21:53:14;;;;;;;18.55;8.15;;;;;;;9.14;44.56;101343.11;1759951;81;21801;-41
2021/10/07 21:55:41;;;;;;;14.68;8.13;;;;;;;9.12;44.59;101342.59;1759703;81;21534;-41
2021/10/07 21:58:07;;;;;;;15.55;7.33;;;;;;;9.12;44.84;101349.91;1789525;80;20960;-42
2021/10/07 22:00:43;;;;;;;18.00;7.45;;;;;;;9.08;44.87;101342.95;1776554;80;22035;-42
2021/10/07 22:03:10;;;;;;;13.38;7.85;;;;;;;9.07;44.76;101342.69;1770172;81;21367;-41
2021/10/07 22:05:37;;;;;;;18.90;7.22;;;;;;;9.07;44.79;101342.69;1770147;81;21055;-42
2021/10/07 22:08:05;;;;;;;13.15;7.45;;;;;;;9.05;44.84;101340.82;1770293;81;21127;-41
2021/10/07 22:10:32;;;;;;;17.32;7.90;;;;;;;9.04;44.87;101344.66;1770233;81;21012;-42
2021/10/07 22:12:59;;;;;;;15.72;7.58;;;;;;;9.02;44.98;101337.38;1770167;81;21011;-42
2021/10/07 22:15:26;;;;;;;17.70;7.70;;;;;;;9.02;45.14;101337.92;1770260;81;21549;-42
2021/10/07 22:17:53;;;;;;;11.78;7.62;;;;;;;9.02;45.05;101344.14;1770020;81;21035;-42
2021/10/07 22:20:19;;;;;;;12.80;7.10;;;;;;;9.00;45.21;101339.60;1791847;80;21134;-41
2021/10/07 22:22:47;;;;;;;14.07;8.15;;;;;;;8.99;45.30;101341.24;1776079;80;21008;-41
2021/10/07 22:25:14;;;;;;;16.35;8.20;;;;;;;9.01;45.22;101339.83;1770093;81;20964;-42
2021/10/07 22:27:41;;;;;;;11.53;7.03;;;;;;;9.00;45.50;101338.25;1770036;81;20949;-41
2021/10/07 22:30:09;;;;;;;16.40;7.85;;;;;;;8.99;45.37;101331.77;1770219;81;21031;-42
2021/10/07 22:32:39;;;;;;;12.53;7.40;;;;;;;8.94;45.58;101338.09;1770069;81;21101;-41
2021/10/07 22:35:07;;;;;;;14.30;7.55;;;;;;;8.92;45.29;101337.58;1770518;81;21561;-41
2021/10/07 22:37:34;;;;;;;15.85;7.62;;;;;;;8.88;45.26;101343.33;1791775;80;20963;-42
2021/10/07 22:40:02;;;;;;;14.87;7.10;;;;;;;8.84;45.30;101339.63;1776501;80;21902;-41
2021/10/07 22:42:29;;;;;;;13.32;6.92;;;;;;;8.79;45.36;101338.37;1770178;81;21019;-42
2021/10/07 22:44:55;;;;;;;15.05;6.72;;;;;;;8.76;45.52;101347.09;1791690;80;21804;-41
2021/10/07 22:47:22;;;;;;;11.22;6.60;;;;;;;8.73;45.52;101357.14;1776304;80;20953;-41
2021/10/07 22:49:48;;;;;;;15.18;8.45;;;;;;;8.68;45.58;101350.47;1769994;81;21069;-41
2021/10/07 22:52:15;;;;;;;11.70;7.42;;;;;;;8.64;45.65;101363.78;1737994;81;21019;-41
2021/10/07 22:54:41;;;;;;;15.10;8.08;;;;;;;8.61;45.75;101357.63;1736363;82;21052;-42
2021/10/07 22:57:08;;;;;;;13.28;8.18;;;;;;;8.57;45.93;101358.50;1736313;82;21169;-41
2021/10/07 22:59:34;;;;;;;15.03;7.40;;;;;;;8.52;46.06;101361.31;1736389;82;21581;-41
2021/10/07 23:02:01;;;;;;;13.15;7.50;;;;;;;8.47;46.20;101366.81;1736471;82;21010;-41
2021/10/07 23:04:27;;;;;;;14.13;7.67;;;;;;;8.43;46.19;101361.17;1737046;82;21019;-42
2021/10/07 23:06:54;;;;;;;14.13;7.35;;;;;;;8.40;46.55;101355.02;1736591;82;21025;-41
2021/10/07 23:09:20;;;;;;;13.98;7.78;;;;;;;8.36;46.69;101351.85;1736766;82;21811;-42
2021/10/07 23:11:47;;;;;;;14.73;7.37;;;;;;;8.31;47.06;101352.73;1736448;82;21076;-41
2021/10/07 23:14:13;;;;;;;15.28;7.70;;;;;;;8.26;47.14;101349.55;1736623;82;20968;-41
2021/10/07 23:16:39;;;;;;;13.50;6.87;;;;;;;8.20;46.94;101341.26;1736621;82;21051;-42
2021/10/07 23:19:06;;;;;;;11.88;7.33;;;;;;;8.15;47.06;101346.75;1736732;82;21569;-41
2021/10/07 23:21:32;;;;;;;11.73;7.55;;;;;;;8.10;47.04;101354.92;1736524;82;21083;-42
2021/10/07 23:23:59;;;;;;;12.20;7.75;;;;;;;8.06;47.09;101353.11;1736477;82;21043;-41
2021/10/07 23:26:27;;;;;;;20.10;8.03;;;;;;;8.01;47.15;101351.29;1736517;82;21023;-41
2021/10/07 23:28:53;;;;;;;15.80;7.90;;;;;;;7.97;47.22;101355.68;1736430;82;21036;-41
2021/10/07 23:31:20;;;;;;;12.93;7.83;;;;;;;7.94;47.40;101353.55;1736489;82;21004;-41
2021/10/07 23:33:46;;;;;;;14.25;6.97;;;;;;;7.91;47.46;101354.69;1736600;82;21879;-41
2021/10/07 23:36:15;;;;;;;15.45;8.05;;;;;;;7.91;47.52;101355.49;1736319;82;21631;-41
2021/10/07 23:38:42;;;;;;;10.93;7.05;;;;;;;7.89;47.43;101352.84;1736453;82;20941;-41
2021/10/07 23:41:08;;;;;;;15.32;7.85;;;;;;;7.86;47.56;101354.22;1736443;82;21039;-42
2021/10/07 23:43:35;;;;;;;12.23;7.87;;;;;;;7.82;47.67;101350.50;1736478;82;22005;-41
2021/10/07 23:46:01;;;;;;;13.40;7.25;;;;;;;7.79;47.70;101353.80;1736264;82;21109;-41
2021/10/07 23:48:28;;;;;;;13.93;7.12;;;;;;;7.77;47.84;101351.92;1736549;82;21493;-41
2021/10/07 23:50:54;;;;;;;13.20;7.75;;;;;;;7.75;47.84;101347.34;1736967;81;21315;-42
2021/10/07 23:53:22;;;;;;;12.55;6.72;;;;;;;7.72;48.02;101350.09;1738364;82;21080;-42
2021/10/07 23:55:48;;;;;;;11.03;6.85;;;;;;;7.71;47.93;101345.78;1738329;82;21004;-41
2021/10/07 23:58:15;;;;;;;18.92;7.40;;;;;;;7.72;47.98;101351.98;1738102;82;21138;-41
